La Grange, Texas
Current Conditions -  °F | °C
As of 6:30 AM on Monday 22 Dec 2014 (Local Time) from K3T5 Reporting Station
Overcast Overcast  
Wind Chill: 60°   Ceiling: 500
Heat Index: 60°   Visibility: 7mi
Dew Point: 59°   Wind: 9mph
Humidity: 97%   Direction: 200°SSW
Pressure: 29.73"   Gusts: NA
Location:  29.91°N, 96.88°W
Report Text: K3T5 221230Z AUTO 20008KT 7SM OVC005 16/15 A2973 RMK AO2 T01550151
Loading
Personal Weather Stations






























Interactive Weather Map New forecast layout! Learn more

10-Day Weather Forecast

Advertisements
Track Severe Weather on mobile